Time;durP1;ratioP1;P1;durP2;ratioP2;P2;SDS_P1;SDS_P2;PMS_P1;PMS_P2;Temp;Humidity;BMP_temperature;BMP_pressure;BME280_temperature;BME280_humidity;BME280_pressure;Samples;Min_cycle;Max_cycle;Signal;HPM_P1;HPM_P2
2022/05/26 00:02:13;;;;;;;2.50;1.30;;;21.10;73.00;;;;;;5010310;28;20767;-73
2022/05/26 00:04:44;;;;;;;2.07;1.40;;;21.10;73.10;;;;;;5027081;28;20520;-73
2022/05/26 00:07:12;;;;;;;2.27;1.17;;;21.10;73.20;;;;;;5011268;28;20442;-74
2022/05/26 00:09:42;;;;;;;2.50;1.20;;;21.10;73.40;;;;;;4994184;28;20456;-74
2022/05/26 00:12:12;;;;;;;2.07;1.50;;;21.10;73.50;;;;;;5010537;28;20499;-74
2022/05/26 00:14:44;;;;;;;3.63;1.60;;;21.10;73.60;;;;;;5010462;28;20423;-73
2022/05/26 00:17:10;;;;;;;4.83;1.73;;;21.10;73.70;;;;;;4994438;28;20441;-73
2022/05/26 00:19:36;;;;;;;2.10;1.20;;;21.10;73.80;;;;;;5011356;28;20443;-73
2022/05/26 00:22:03;;;;;;;1.40;1.30;;;21.10;73.90;;;;;;5009901;28;21024;-73
2022/05/26 00:24:29;;;;;;;2.90;1.10;;;21.10;74.00;;;;;;4993865;28;20831;-73
2022/05/26 00:26:57;;;;;;;1.87;1.10;;;21.00;73.90;;;;;;5010740;28;20424;-74
2022/05/26 00:29:23;;;;;;;2.77;1.10;;;21.00;74.00;;;;;;4994100;28;20451;-73
2022/05/26 00:31:51;;;;;;;3.53;1.20;;;21.00;74.00;;;;;;5011475;28;20610;-74
2022/05/26 00:34:18;;;;;;;1.30;1.20;;;21.10;74.20;;;;;;5010776;28;20520;-74
2022/05/26 00:36:49;;;;;;;4.50;1.30;;;21.00;74.20;;;;;;5011600;28;20466;-74
2022/05/26 00:39:19;;;;;;;1.60;1.30;;;21.00;74.20;;;;;;5009997;28;20489;-74
2022/05/26 00:41:55;;;;;;;2.10;1.20;;;21.00;74.30;;;;;;5012432;28;20442;-73
2022/05/26 00:44:21;;;;;;;1.73;1.23;;;21.00;74.30;;;;;;4997271;28;20481;-74
2022/05/26 00:47:19;;;;;;;1.60;1.20;;;21.00;74.50;;;;;;4997312;28;20453;-73
2022/05/26 00:50:03;;;;;;;1.70;1.00;;;21.00;74.60;;;;;;5013734;28;20444;-73
2022/05/26 00:52:36;;;;;;;1.50;1.20;;;21.00;74.80;;;;;;5012523;28;20447;-73
2022/05/26 00:55:10;;;;;;;1.20;1.10;;;20.90;74.70;;;;;;4997133;28;20429;-73
2022/05/26 00:57:41;;;;;;;2.70;1.13;;;20.90;74.80;;;;;;5013211;28;20439;-73
2022/05/26 01:00:15;;;;;;;3.83;1.50;;;20.90;74.90;;;;;;4981127;28;20438;-73
2022/05/26 01:02:47;;;;;;;1.90;1.40;;;20.90;75.00;;;;;;5012784;28;20477;-73
2022/05/26 01:05:21;;;;;;;1.67;1.30;;;20.90;75.10;;;;;;4980962;28;20904;-74
2022/05/26 01:07:48;;;;;;;2.90;1.10;;;20.90;75.10;;;;;;4994829;28;20400;-73
2022/05/26 01:10:16;;;;;;;3.97;1.10;;;20.90;75.20;;;;;;4993731;28;20482;-73
2022/05/26 01:12:44;;;;;;;2.10;1.30;;;20.90;75.30;;;;;;4993725;28;20435;-73
2022/05/26 01:15:17;;;;;;;2.67;1.03;;;20.90;75.30;;;;;;5002418;28;20454;-73
2022/05/26 01:18:27;;;;;;;1.97;1.40;;;20.90;75.40;;;;;;5014525;28;20426;-73
2022/05/26 01:21:20;;;;;;;1.37;1.20;;;20.90;75.70;;;;;;4953843;29;20477;-73
2022/05/26 01:23:59;;;;;;;2.70;1.23;;;20.90;75.80;;;;;;5012064;28;20474;-74
2022/05/26 01:26:55;;;;;;;2.80;0.97;;;20.80;75.80;;;;;;5014409;28;20481;-73
2022/05/26 01:29:44;;;;;;;1.97;1.20;;;20.80;76.10;;;;;;5029651;28;20496;-74
2022/05/26 01:32:32;;;;;;;3.03;1.00;;;20.80;76.20;;;;;;4996890;28;20431;-74
2022/05/26 01:35:21;;;;;;;1.57;1.30;;;20.80;76.30;;;;;;4996951;28;20514;-73
2022/05/26 01:37:56;;;;;;;1.47;1.13;;;20.80;76.50;;;;;;4996527;28;20444;-73
2022/05/26 01:40:48;;;;;;;1.37;1.07;;;20.80;76.60;;;;;;5013764;28;20816;-74
2022/05/26 01:43:23;;;;;;;2.90;1.10;;;20.80;77.50;;;;;;5012576;28;20597;-74
2022/05/26 01:45:57;;;;;;;1.40;1.20;;;20.70;76.80;;;;;;4996534;28;20866;-73
2022/05/26 01:48:37;;;;;;;3.20;2.00;;;20.70;76.80;;;;;;5013013;28;20794;-74
2022/05/26 01:51:06;;;;;;;2.27;1.23;;;20.70;77.00;;;;;;4996168;28;20841;-73
2022/05/26 01:54:06;;;;;;;2.00;1.33;;;20.70;77.00;;;;;;5012653;28;20491;-73
2022/05/26 01:56:51;;;;;;;5.00;1.67;;;20.70;77.10;;;;;;5012593;28;20944;-73
2022/05/26 01:59:37;;;;;;;1.87;1.30;;;20.70;77.10;;;;;;4996635;28;20524;-73
2022/05/26 02:02:15;;;;;;;1.93;1.23;;;20.70;77.20;;;;;;5012305;28;20455;-73
2022/05/26 02:04:48;;;;;;;1.63;1.30;;;20.70;77.30;;;;;;5013641;28;20981;-74
2022/05/26 02:07:37;;;;;;;2.40;1.13;;;20.70;77.30;;;;;;5012505;28;20517;-74
2022/05/26 02:10:09;;;;;;;1.30;1.10;;;20.70;77.50;;;;;;5011596;28;20984;-74
2022/05/26 02:12:45;;;;;;;1.53;1.13;;;20.70;77.60;;;;;;5012490;28;20823;-74
2022/05/26 02:15:22;;;;;;;2.97;1.20;;;20.70;77.80;;;;;;4996158;28;20427;-74
2022/05/26 02:17:58;;;;;;;1.57;1.10;;;20.70;77.90;;;;;;5013506;28;20818;-75
2022/05/26 02:20:29;;;;;;;1.83;1.10;;;20.70;77.80;;;;;;5012841;28;21038;-74
2022/05/26 02:23:23;;;;;;;3.13;1.43;;;20.70;77.90;;;;;;5012210;28;20450;-74
2022/05/26 02:25:50;;;;;;;1.97;1.20;;;20.60;78.00;;;;;;5012229;28;20412;-74
2022/05/26 02:28:16;;;;;;;2.80;1.20;;;20.70;78.10;;;;;;5012128;28;20508;-74
2022/05/26 02:30:46;;;;;;;2.37;1.40;;;20.60;78.00;;;;;;4995677;28;20446;-74
2022/05/26 02:33:17;;;;;;;2.43;1.50;;;20.60;78.10;;;;;;5013021;28;20423;-74
2022/05/26 02:35:49;;;;;;;1.70;1.30;;;20.60;78.10;;;;;;5011769;28;20443;-75
2022/05/26 02:38:22;;;;;;;1.70;1.30;;;20.60;78.30;;;;;;4992197;28;20874;-74
2022/05/26 02:40:49;;;;;;;1.90;1.30;;;20.60;78.40;;;;;;4992505;28;20508;-74
2022/05/26 02:43:29;;;;;;;3.93;1.30;;;20.60;78.40;;;;;;5021373;28;20534;-74
2022/05/26 02:46:00;;;;;;;5.03;1.33;;;20.60;78.60;;;;;;4976218;28;20424;-74
2022/05/26 02:48:54;;;;;;;4.23;1.50;;;20.60;78.60;;;;;;5009165;28;20409;-74
2022/05/26 02:51:45;;;;;;;3.40;1.40;;;20.60;78.70;;;;;;4992921;28;20981;-74
2022/05/26 02:54:27;;;;;;;1.33;1.23;;;20.60;78.80;;;;;;4995484;28;20427;-74
2022/05/26 02:57:12;;;;;;;3.50;1.70;;;20.60;78.90;;;;;;5011357;28;20423;-74
2022/05/26 02:59:57;;;;;;;1.97;1.33;;;20.60;78.90;;;;;;5011582;28;20477;-74
2022/05/26 03:02:29;;;;;;;1.53;1.40;;;20.60;79.70;;;;;;5011276;28;20905;-74
2022/05/26 03:05:20;;;;;;;1.87;1.30;;;20.60;78.90;;;;;;4994732;28;20463;-74
2022/05/26 03:07:52;;;;;;;1.80;1.20;;;20.50;79.00;;;;;;5027187;28;20422;-74
2022/05/26 03:10:30;;;;;;;3.07;1.40;;;20.50;79.20;;;;;;4994017;28;20866;-74
2022/05/26 03:12:59;;;;;;;1.97;1.30;;;20.50;79.20;;;;;;5012539;28;20861;-74
2022/05/26 03:15:31;;;;;;;2.90;1.70;;;20.50;79.20;;;;;;4991783;28;20480;-74
2022/05/26 03:18:01;;;;;;;1.93;1.30;;;20.50;79.30;;;;;;4979158;28;20464;-74
2022/05/26 03:20:28;;;;;;;2.80;1.63;;;20.50;79.30;;;;;;5012113;28;20524;-74
2022/05/26 03:22:55;;;;;;;1.60;1.50;;;20.50;79.50;;;;;;4994955;28;20556;-74
2022/05/26 03:25:21;;;;;;;2.30;1.67;;;20.50;79.60;;;;;;5012254;28;20419;-74
2022/05/26 03:27:47;;;;;;;1.90;1.60;;;20.50;79.60;;;;;;4994968;28;20419;-75
2022/05/26 03:30:17;;;;;;;1.90;1.47;;;20.50;79.70;;;;;;5012110;28;20442;-74
2022/05/26 03:32:43;;;;;;;1.87;1.67;;;20.50;79.80;;;;;;4994997;28;20440;-74
2022/05/26 03:40:57;;;;;;;3.27;1.77;;;20.50;80.20;;;;;;4995459;28;20458;-74
2022/05/26 03:43:37;;;;;;;1.70;1.47;;;20.50;80.30;;;;;;4993842;28;20477;-75
2022/05/26 03:46:06;;;;;;;2.03;1.77;;;20.40;80.40;;;;;;4994963;28;20780;-74
2022/05/26 03:48:35;;;;;;;1.30;1.20;;;20.50;80.60;;;;;;4994628;28;20496;-74
2022/05/26 03:51:05;;;;;;;2.20;1.50;;;20.40;80.40;;;;;;5012253;28;20454;-74
2022/05/26 03:53:33;;;;;;;1.90;1.53;;;20.40;80.80;;;;;;5010586;28;20462;-74
2022/05/26 03:56:04;;;;;;;1.83;1.50;;;20.40;81.10;;;;;;5010909;28;20414;-74
2022/05/26 03:58:35;;;;;;;4.27;2.00;;;20.40;81.30;;;;;;5026476;28;20419;-74
2022/05/26 04:01:03;;;;;;;2.30;1.57;;;20.40;81.70;;;;;;5010528;28;20436;-75
2022/05/26 04:03:34;;;;;;;2.40;1.80;;;20.40;81.90;;;;;;4994562;28;20479;-74
2022/05/26 04:06:02;;;;;;;2.60;1.80;;;20.40;82.10;;;;;;4994309;28;20516;-74
2022/05/26 04:08:28;;;;;;;2.10;1.40;;;20.40;82.40;;;;;;5011677;28;20421;-74
2022/05/26 04:10:57;;;;;;;1.63;1.47;;;20.40;82.70;;;;;;5011790;28;20529;-74
2022/05/26 04:13:23;;;;;;;1.93;1.70;;;20.40;82.90;;;;;;5011626;28;20973;-74
2022/05/26 04:15:49;;;;;;;1.87;1.60;;;20.40;82.90;;;;;;5012907;28;20413;-74
2022/05/26 04:18:15;;;;;;;2.03;1.53;;;20.40;83.00;;;;;;4997970;28;20860;-74
2022/05/26 04:20:46;;;;;;;3.60;1.73;;;20.40;83.10;;;;;;5015914;28;20818;-74
2022/05/26 04:23:11;;;;;;;2.40;1.73;;;20.30;83.30;;;;;;5014952;28;20458;-74
2022/05/26 04:25:37;;;;;;;4.17;2.00;;;20.30;83.50;;;;;;5015066;28;20946;-74
2022/05/26 04:28:08;;;;;;;2.33;1.53;;;20.30;83.80;;;;;;4999311;28;20457;-74
2022/05/26 04:30:38;;;;;;;2.00;1.80;;;20.30;84.00;;;;;;5030230;28;20454;-74
2022/05/26 04:33:03;;;;;;;3.37;1.80;;;20.30;84.30;;;;;;5007657;28;20439;-77
2022/05/26 04:35:35;;;;;;;2.87;1.70;;;20.30;84.40;;;;;;5015675;28;20442;-74
2022/05/26 04:38:01;;;;;;;2.90;1.77;;;20.30;84.40;;;;;;4997887;28;20983;-74
2022/05/26 04:40:27;;;;;;;3.23;1.67;;;20.30;84.60;;;;;;5015724;28;20449;-74
2022/05/26 04:42:59;;;;;;;2.93;1.80;;;20.30;84.70;;;;;;5015363;28;20469;-74
2022/05/26 04:45:25;;;;;;;3.40;1.77;;;20.30;84.90;;;;;;5015708;28;20458;-74
2022/05/26 04:47:54;;;;;;;2.47;1.70;;;20.30;84.90;;;;;;5014527;28;20414;-74
2022/05/26 04:50:21;;;;;;;2.50;1.80;;;20.30;84.80;;;;;;5004103;28;20462;-74
2022/05/26 04:52:49;;;;;;;5.20;1.97;;;20.30;85.00;;;;;;5014383;28;20438;-74
2022/05/26 04:55:16;;;;;;;1.90;1.50;;;20.30;85.20;;;;;;5015652;28;20782;-75
2022/05/26 04:57:41;;;;;;;2.43;1.90;;;20.20;85.00;;;;;;5014512;28;20961;-74
2022/05/26 05:00:10;;;;;;;2.50;1.90;;;20.20;85.10;;;;;;5015104;28;20465;-74
2022/05/26 05:02:36;;;;;;;2.93;1.60;;;20.20;85.20;;;;;;5015053;28;20437;-74
2022/05/26 05:05:04;;;;;;;3.33;2.50;;;20.20;85.20;;;;;;5014780;28;20506;-74
2022/05/26 05:07:39;;;;;;;2.43;1.80;;;20.20;85.40;;;;;;4978127;28;20493;-74
2022/05/26 05:10:06;;;;;;;3.67;1.80;;;20.20;86.50;;;;;;5009776;28;20521;-74
2022/05/26 05:12:32;;;;;;;3.20;2.20;;;20.20;85.80;;;;;;4995321;28;20407;-74
2022/05/26 05:14:59;;;;;;;3.93;2.10;;;20.20;85.80;;;;;;5009383;28;20530;-74
2022/05/26 05:17:28;;;;;;;2.77;1.83;;;20.20;86.00;;;;;;4978431;28;20423;-74
2022/05/26 05:19:56;;;;;;;2.37;2.17;;;20.20;86.20;;;;;;5010047;28;20457;-73
2022/05/26 05:22:25;;;;;;;3.50;2.00;;;20.20;86.60;;;;;;4961726;28;20432;-74
2022/05/26 05:24:57;;;;;;;2.40;2.00;;;20.20;87.00;;;;;;4994548;28;20465;-74
2022/05/26 05:28:01;;;;;;;4.90;2.40;;;20.20;87.00;;;;;;4995167;28;20404;-74
2022/05/26 05:30:39;;;;;;;3.13;2.00;;;20.20;87.20;;;;;;4953457;28;20482;-74
2022/05/26 05:33:15;;;;;;;4.47;2.30;;;20.20;87.50;;;;;;5013340;28;20425;-74
2022/05/26 05:36:01;;;;;;;4.30;2.23;;;20.10;87.50;;;;;;5013976;28;20758;-74
2022/05/26 05:38:27;;;;;;;3.03;2.10;;;20.10;87.60;;;;;;4994263;28;20454;-74
2022/05/26 05:40:53;;;;;;;3.60;2.40;;;20.10;87.70;;;;;;4994950;28;20579;-74
2022/05/26 05:43:19;;;;;;;4.90;2.37;;;20.10;87.80;;;;;;4995455;28;20466;-74
2022/05/26 05:45:48;;;;;;;3.40;2.20;;;20.10;87.70;;;;;;5012063;28;20216;-72
2022/05/26 05:48:14;;;;;;;4.20;2.33;;;20.10;88.00;;;;;;5013535;28;20415;-74
2022/05/26 05:50:40;;;;;;;3.30;2.00;;;20.10;88.20;;;;;;5012814;28;20825;-74
2022/05/26 05:53:09;;;;;;;2.47;2.20;;;20.10;88.20;;;;;;5014412;28;20413;-74
2022/05/26 05:55:35;;;;;;;2.70;2.03;;;20.10;88.10;;;;;;4996849;28;20298;-74
2022/05/26 05:58:08;;;;;;;4.77;2.57;;;20.10;88.10;;;;;;5013213;28;20439;-74
2022/05/26 06:00:38;;;;;;;3.43;2.40;;;20.10;88.40;;;;;;5012913;28;20922;-74
2022/05/26 06:03:05;;;;;;;4.83;3.07;;;20.10;88.70;;;;;;4996356;28;20524;-74
2022/05/26 06:05:33;;;;;;;3.47;2.40;;;20.10;88.70;;;;;;5012723;28;20496;-74
2022/05/26 06:08:02;;;;;;;6.60;3.50;;;20.10;88.60;;;;;;4996259;28;20428;-74
2022/05/26 06:10:32;;;;;;;6.73;3.30;;;20.10;88.60;;;;;;5012500;28;21001;-74
2022/05/26 06:12:59;;;;;;;4.67;3.00;;;20.00;88.70;;;;;;4996262;28;20414;-74
2022/05/26 06:15:25;;;;;;;3.97;2.80;;;20.00;88.70;;;;;;5013528;28;20450;-74
2022/05/26 06:17:54;;;;;;;4.77;3.00;;;20.00;89.00;;;;;;5012559;28;20421;-74
2022/05/26 06:20:20;;;;;;;4.10;2.77;;;20.00;89.00;;;;;;4996296;28;20530;-74
2022/05/26 06:22:47;;;;;;;4.83;2.60;;;20.00;89.10;;;;;;4996007;28;20444;-74
2022/05/26 06:25:20;;;;;;;4.73;2.90;;;20.00;88.90;;;;;;5012078;28;20549;-74
2022/05/26 06:30:32;;;;;;;5.43;2.90;;;20.10;89.30;;;;;;5013320;28;20826;-73
2022/05/26 06:38:41;;;;;;;6.60;3.40;;;20.00;89.10;;;;;;5011177;28;20458;-74
2022/05/26 06:43:55;;;;;;;5.03;3.80;;;20.00;89.50;;;;;;5018083;28;20460;-73
2022/05/26 06:46:24;;;;;;;5.80;3.80;;;20.00;89.50;;;;;;4995913;28;20411;-73
2022/05/26 06:48:50;;;;;;;4.90;3.57;;;20.00;89.70;;;;;;5012933;28;20501;-73
2022/05/26 06:51:24;;;;;;;8.20;3.90;;;20.00;89.90;;;;;;5012904;28;20446;-74
2022/05/26 06:53:53;;;;;;;5.37;3.60;;;20.00;89.90;;;;;;5011625;28;21025;-74
2022/05/26 06:56:19;;;;;;;6.93;4.47;;;20.00;89.70;;;;;;5011803;28;20509;-74
2022/05/26 06:58:47;;;;;;;4.60;3.83;;;20.00;89.90;;;;;;5011908;28;20532;-73
2022/05/26 07:01:16;;;;;;;8.37;5.23;;;20.00;89.90;;;;;;5012712;28;20419;-74
2022/05/26 07:03:43;;;;;;;8.87;4.47;;;20.00;89.30;;;;;;5012630;28;20990;-74
2022/05/26 07:06:20;;;;;;;6.00;5.40;;;20.00;89.30;;;;;;5011679;28;20410;-73
2022/05/26 07:08:47;;;;;;;8.97;4.70;;;20.00;89.50;;;;;;5012391;28;20424;-74
2022/05/26 07:11:18;;;;;;;7.83;4.87;;;20.00;89.80;;;;;;5012650;28;20398;-74
2022/05/26 07:13:45;;;;;;;5.80;4.50;;;20.00;89.90;;;;;;4994786;28;20427;-73
2022/05/26 07:16:15;;;;;;;7.20;5.10;;;20.00;90.00;;;;;;5011690;28;20479;-73
2022/05/26 07:18:41;;;;;;;6.70;5.23;;;20.00;90.00;;;;;;5011976;28;20425;-74
2022/05/26 07:21:08;;;;;;;5.73;5.10;;;20.00;90.00;;;;;;5010671;28;20513;-74
2022/05/26 07:23:35;;;;;;;7.50;5.67;;;20.00;89.90;;;;;;5000388;28;20468;-73
2022/05/26 07:26:09;;;;;;;10.57;5.70;;;20.00;89.90;;;;;;4995338;28;20412;-75
2022/05/26 07:28:40;;;;;;;9.20;5.60;;;20.00;90.10;;;;;;5012345;28;20939;-73
2022/05/26 07:31:07;;;;;;;5.87;5.00;;;20.00;90.00;;;;;;5012792;28;20441;-73
2022/05/26 07:33:33;;;;;;;8.53;5.80;;;20.00;90.00;;;;;;5012026;28;20495;-74
2022/05/26 07:36:02;;;;;;;6.00;4.97;;;20.00;89.90;;;;;;5012233;28;20405;-74
2022/05/26 07:41:23;;;;;;;5.60;5.10;;;20.00;89.50;;;;;;5010795;28;20832;-74
2022/05/26 07:43:55;;;;;;;6.90;5.20;;;20.00;89.70;;;;;;5011972;28;20455;-74
2022/05/26 07:46:23;;;;;;;6.00;5.20;;;20.00;89.20;;;;;;5010870;28;20438;-74
2022/05/26 07:48:51;;;;;;;8.63;5.27;;;20.00;89.00;;;;;;4993907;28;20436;-74
2022/05/26 07:51:20;;;;;;;10.20;6.10;;;20.00;88.90;;;;;;4978299;28;20497;-74
2022/05/26 07:53:46;;;;;;;7.70;5.90;;;20.00;89.10;;;;;;5015948;28;20426;-74
2022/05/26 07:56:17;;;;;;;7.47;5.30;;;20.00;89.10;;;;;;5013017;28;21023;-74
2022/05/26 07:58:47;;;;;;;6.50;5.23;;;20.00;89.10;;;;;;5015015;28;20599;-74
2022/05/26 08:01:14;;;;;;;7.33;5.60;;;20.00;89.20;;;;;;4998177;28;20440;-74
2022/05/26 08:03:42;;;;;;;7.07;5.57;;;20.00;89.20;;;;;;4998978;28;20465;-74
2022/05/26 08:06:09;;;;;;;6.17;5.53;;;20.00;89.50;;;;;;5015533;28;20402;-73
2022/05/26 08:08:35;;;;;;;6.13;5.10;;;20.00;89.40;;;;;;5016352;28;20445;-72
2022/05/26 08:11:04;;;;;;;8.07;6.40;;;20.00;89.20;;;;;;5015704;28;20437;-74
2022/05/26 08:13:32;;;;;;;8.30;5.50;;;20.00;89.00;;;;;;5015772;28;20421;-73
2022/05/26 08:15:58;;;;;;;13.97;7.03;;;20.00;89.20;;;;;;4998801;28;20445;-74
2022/05/26 08:18:25;;;;;;;10.50;6.70;;;20.00;89.50;;;;;;5016181;28;20414;-74
2022/05/26 08:20:51;;;;;;;8.73;6.20;;;20.00;89.10;;;;;;5013783;28;20461;-75
2022/05/26 08:23:17;;;;;;;11.50;5.90;;;20.10;89.00;;;;;;5014177;28;20457;-73
2022/05/26 08:25:46;;;;;;;12.03;5.90;;;20.10;90.80;;;;;;5015340;28;20445;-73
2022/05/26 08:28:12;;;;;;;13.83;6.30;;;20.00;91.50;;;;;;5014625;28;20420;-73
2022/05/26 08:30:43;;;;;;;11.53;6.73;;;19.90;92.10;;;;;;5014462;28;20440;-74
2022/05/26 08:33:09;;;;;;;10.80;6.70;;;19.70;92.90;;;;;;4998125;28;20433;-74
2022/05/26 08:35:38;;;;;;;7.70;5.60;;;19.60;93.40;;;;;;5014659;28;20415;-73
2022/05/26 08:38:06;;;;;;;13.67;6.10;;;19.60;93.80;;;;;;5013712;28;20616;-74
2022/05/26 08:40:47;;;;;;;13.43;6.63;;;19.50;94.10;;;;;;4998368;28;20506;-74
2022/05/26 08:43:20;;;;;;;8.53;6.00;;;19.40;93.50;;;;;;5014855;28;20460;-74
2022/05/26 08:45:52;;;;;;;18.20;5.87;;;19.40;93.40;;;;;;5014266;28;20413;-74
2022/05/26 08:48:55;;;;;;;11.27;6.07;;;19.50;93.40;;;;;;5013406;28;20463;-74
2022/05/26 08:51:41;;;;;;;11.17;5.50;;;19.40;93.40;;;;;;5014344;28;20427;-73
2022/05/26 08:54:14;;;;;;;7.90;6.50;;;19.50;93.50;;;;;;4997834;28;21123;-74
2022/05/26 08:56:42;;;;;;;15.53;6.07;;;19.40;93.60;;;;;;5014320;28;20957;-74
2022/05/26 08:59:15;;;;;;;10.80;6.33;;;19.50;93.20;;;;;;5014320;28;20526;-74
2022/05/26 09:01:47;;;;;;;9.03;6.00;;;19.50;93.30;;;;;;5013127;28;20477;-74
2022/05/26 09:04:15;;;;;;;8.60;6.33;;;19.40;93.20;;;;;;5015005;28;20540;-75
2022/05/26 09:12:58;;;;;;;10.10;5.60;;;19.40;93.50;;;;;;5014525;28;20504;-74
2022/05/26 09:15:26;;;;;;;13.03;6.90;;;19.30;93.80;;;;;;4997230;28;20448;-74
2022/05/26 09:17:52;;;;;;;8.43;6.20;;;19.30;94.40;;;;;;5013433;28;20458;-74
2022/05/26 09:20:39;;;;;;;8.87;6.60;;;19.40;94.00;;;;;;5014508;28;20790;-74
2022/05/26 09:23:08;;;;;;;14.43;6.33;;;19.50;94.40;;;;;;4981162;28;20453;-74
2022/05/26 09:25:38;;;;;;;11.43;6.07;;;19.60;94.60;;;;;;5000985;28;20760;-74
2022/05/26 09:28:06;;;;;;;10.10;5.80;;;19.60;94.00;;;;;;4997245;28;20460;-74
2022/05/26 09:30:41;;;;;;;8.67;5.40;;;19.60;93.90;;;;;;4997746;28;20448;-74
2022/05/26 09:33:30;;;;;;;8.10;4.73;;;19.60;93.70;;;;;;4997330;28;20555;-74
2022/05/26 09:36:27;;;;;;;8.97;5.23;;;19.70;93.90;;;;;;5014708;28;20463;-74
2022/05/26 09:38:53;;;;;;;8.37;5.13;;;19.70;93.10;;;;;;4981258;28;20444;-74
2022/05/26 09:41:19;;;;;;;6.57;4.67;;;19.80;92.80;;;;;;5013403;28;20482;-75
2022/05/26 09:43:51;;;;;;;6.80;4.27;;;19.80;92.80;;;;;;4996671;28;20465;-74
2022/05/26 09:46:19;;;;;;;7.97;4.30;;;19.80;92.40;;;;;;5014322;28;20394;-74
2022/05/26 09:48:52;;;;;;;9.50;4.00;;;19.80;92.10;;;;;;5028991;28;20475;-74
2022/05/26 09:51:40;;;;;;;6.27;4.13;;;19.70;91.80;;;;;;5012604;28;20478;-74
2022/05/26 09:54:36;;;;;;;6.83;4.30;;;19.70;92.00;;;;;;5012789;28;20443;-74
2022/05/26 09:57:32;;;;;;;7.03;4.00;;;19.80;92.60;;;;;;4977254;28;20449;-74
2022/05/26 10:00:00;;;;;;;8.20;3.97;;;19.80;92.30;;;;;;5005046;28;20462;-74
2022/05/26 10:02:41;;;;;;;5.67;3.33;;;19.90;91.50;;;;;;4996293;28;20448;-74
2022/05/26 10:05:26;;;;;;;6.30;3.77;;;20.00;92.10;;;;;;4996367;28;20428;-74
2022/05/26 10:08:01;;;;;;;4.27;3.47;;;20.10;91.40;;;;;;4995964;28;20502;-74
2022/05/26 10:10:34;;;;;;;6.70;3.50;;;20.10;90.10;;;;;;5012358;28;20512;-74
2022/05/26 10:13:37;;;;;;;8.07;3.30;;;20.20;91.30;;;;;;4995654;28;20941;-74
2022/05/26 10:16:15;;;;;;;6.67;3.30;;;20.30;89.90;;;;;;5009031;28;20407;-74
2022/05/26 10:18:55;;;;;;;5.97;2.80;;;20.30;88.70;;;;;;4997933;28;20483;-74
2022/05/26 10:21:39;;;;;;;7.53;3.80;;;20.30;88.70;;;;;;5013794;28;20412;-74
2022/05/26 10:24:11;;;;;;;5.50;2.90;;;20.30;88.60;;;;;;4995714;28;20504;-74
2022/05/26 10:27:03;;;;;;;6.33;3.03;;;20.00;89.50;;;;;;5012308;28;20426;-75
2022/05/26 10:29:50;;;;;;;6.13;3.57;;;20.00;90.10;;;;;;5012789;28;20514;-77
2022/05/26 10:32:18;;;;;;;4.43;2.90;;;20.00;88.90;;;;;;4997077;28;20430;-75
2022/05/26 10:35:03;;;;;;;7.87;3.20;;;20.10;89.00;;;;;;4996300;28;20429;-75
2022/05/26 10:37:47;;;;;;;5.30;3.20;;;20.10;88.10;;;;;;4996750;28;20434;-74
2022/05/26 10:40:53;;;;;;;4.97;2.77;;;20.10;88.30;;;;;;4996708;28;20445;-76
2022/05/26 10:43:43;;;;;;;4.20;2.83;;;20.10;89.00;;;;;;5013298;28;20497;-78
2022/05/26 10:46:09;;;;;;;4.83;3.30;;;20.10;90.00;;;;;;4994414;28;20491;-78
2022/05/26 10:48:59;;;;;;;9.73;3.70;;;20.20;89.50;;;;;;4993669;28;20826;-75
2022/05/26 10:51:47;;;;;;;5.83;3.90;;;20.20;89.60;;;;;;5009585;28;20827;-75
2022/05/26 10:54:51;;;;;;;4.70;3.77;;;20.30;88.90;;;;;;5011702;28;20463;-76
2022/05/26 10:57:26;;;;;;;6.60;3.50;;;20.40;89.60;;;;;;5011363;28;20853;-75
2022/05/26 11:00:05;;;;;;;6.73;3.37;;;20.50;86.90;;;;;;5011970;28;20478;-77
2022/05/26 11:02:43;;;;;;;4.50;3.10;;;20.50;88.20;;;;;;4997554;28;20433;-76
2022/05/26 11:05:14;;;;;;;5.40;3.17;;;20.60;85.70;;;;;;5010752;28;20837;-75
2022/05/26 11:08:15;;;;;;;4.37;3.27;;;20.70;84.60;;;;;;5009471;28;20929;-74
2022/05/26 11:10:53;;;;;;;6.83;3.07;;;20.70;84.60;;;;;;4982315;28;20446;-76
2022/05/26 11:13:40;;;;;;;4.90;3.17;;;20.70;84.70;;;;;;5025877;28;20508;-76
2022/05/26 11:19:32;;;;;;;9.00;2.50;;;20.60;85.70;;;;;;5006977;28;20457;-76
2022/05/26 11:22:00;;;;;;;5.17;2.83;;;20.60;83.50;;;;;;5011645;28;20423;-73
2022/05/26 11:24:32;;;;;;;9.27;3.57;;;20.50;83.20;;;;;;4978868;28;20605;-75
2022/05/26 11:27:10;;;;;;;8.40;2.93;;;20.50;83.80;;;;;;4995914;28;20785;-76
2022/05/26 11:29:44;;;;;;;4.50;2.70;;;20.50;84.70;;;;;;4995317;28;20466;-76
2022/05/26 11:38:12;;;;;;;6.20;3.00;;;20.50;82.00;;;;;;5011655;28;21123;-75
2022/05/26 11:40:50;;;;;;;6.47;3.13;;;20.50;83.80;;;;;;5026792;28;20459;-76
2022/05/26 11:43:29;;;;;;;6.67;2.70;;;20.50;84.60;;;;;;5009641;28;20478;-76
2022/05/26 11:45:57;;;;;;;4.57;2.50;;;20.50;84.20;;;;;;5011000;28;20435;-76
2022/05/26 11:48:33;;;;;;;5.00;3.00;;;20.50;85.20;;;;;;4996241;28;20439;-76
2022/05/26 11:51:24;;;;;;;6.73;3.37;;;20.50;85.40;;;;;;5009802;28;21340;-75
2022/05/26 11:53:50;;;;;;;4.10;2.40;;;20.60;86.40;;;;;;5010867;28;20452;-75
2022/05/26 11:56:25;;;;;;;5.33;3.30;;;20.70;86.00;;;;;;5011072;28;20429;-75
2022/05/26 11:59:27;;;;;;;5.57;2.80;;;20.80;85.10;;;;;;4993741;28;20446;-76
2022/05/26 12:01:59;;;;;;;7.00;2.63;;;20.90;83.80;;;;;;5011537;28;20502;-76
2022/05/26 12:04:35;;;;;;;5.50;3.33;;;21.00;83.00;;;;;;4993658;28;20506;-78
2022/05/26 12:07:04;;;;;;;4.57;3.10;;;21.10;83.00;;;;;;5013152;28;20459;-77
2022/05/26 12:09:58;;;;;;;4.47;2.90;;;21.20;84.20;;;;;;5012885;28;20460;-74
2022/05/26 12:12:24;;;;;;;7.70;2.67;;;21.30;80.60;;;;;;4993755;28;20439;-75
2022/05/26 12:14:51;;;;;;;4.20;3.03;;;21.30;78.30;;;;;;5010826;28;20822;-78
2022/05/26 12:17:55;;;;;;;7.50;3.13;;;21.30;77.80;;;;;;5015142;28;20430;-78
2022/05/26 12:20:21;;;;;;;5.17;2.73;;;21.30;78.90;;;;;;4980465;28;20463;-76
2022/05/26 12:22:50;;;;;;;4.30;3.00;;;21.30;79.30;;;;;;5030618;28;20429;-80
2022/05/26 12:25:40;;;;;;;4.00;3.00;;;21.20;79.50;;;;;;4985945;28;20912;-80
2022/05/26 12:28:29;;;;;;;4.20;2.77;;;21.20;80.00;;;;;;4985771;28;20508;-80
2022/05/26 12:30:56;;;;;;;4.63;2.57;;;21.20;80.00;;;;;;4988443;28;20521;-79
2022/05/26 12:33:47;;;;;;;3.80;2.73;;;21.20;81.50;;;;;;5004908;28;20441;-82
2022/05/26 12:36:23;;;;;;;4.37;3.03;;;21.30;80.60;;;;;;5018653;28;20462;-78
2022/05/26 12:39:34;;;;;;;5.47;2.80;;;21.30;81.00;;;;;;5014425;28;20446;-75
2022/05/26 12:42:15;;;;;;;5.63;2.40;;;21.30;80.90;;;;;;4969865;28;21011;-76
2022/05/26 12:45:03;;;;;;;5.33;2.70;;;21.30;81.20;;;;;;5010923;28;20465;-78
2022/05/26 12:47:36;;;;;;;4.63;2.57;;;21.30;81.10;;;;;;5004529;28;20473;-76
2022/05/26 12:50:04;;;;;;;5.47;3.20;;;21.40;80.80;;;;;;5017642;28;20481;-79
2022/05/26 12:52:38;;;;;;;6.30;2.73;;;21.60;83.80;;;;;;5002182;28;20431;-81
2022/05/26 12:55:29;;;;;;;5.60;3.13;;;21.80;81.10;;;;;;5015073;28;20415;-78
2022/05/26 12:58:16;;;;;;;8.80;2.90;;;21.70;80.10;;;;;;5014859;28;20435;-77
2022/05/26 13:00:49;;;;;;;3.63;2.10;;;21.70;79.30;;;;;;5014826;28;20454;-76
2022/05/26 13:03:33;;;;;;;3.80;2.67;;;21.70;80.70;;;;;;5015405;28;20670;-76
2022/05/26 13:06:10;;;;;;;2.90;2.03;;;21.80;79.50;;;;;;5016249;28;20403;-79
2022/05/26 13:08:51;;;;;;;5.10;2.53;;;21.90;80.70;;;;;;4997411;28;20467;-74
2022/05/26 13:11:21;;;;;;;7.87;2.40;;;22.00;79.80;;;;;;5013096;28;20530;-76
2022/05/26 13:13:52;;;;;;;6.53;2.77;;;22.00;77.30;;;;;;5013749;28;20484;-74
2022/05/26 13:16:26;;;;;;;4.70;2.40;;;22.00;77.10;;;;;;4995448;28;20442;-74
2022/05/26 13:18:56;;;;;;;7.17;3.07;;;21.90;77.50;;;;;;5012270;28;20476;-76
2022/05/26 13:21:33;;;;;;;5.30;2.80;;;21.80;77.50;;;;;;4996597;28;20993;-74
2022/05/26 13:23:59;;;;;;;6.47;2.43;;;21.70;77.90;;;;;;4980475;28;20478;-72
2022/05/26 13:26:25;;;;;;;3.67;2.47;;;21.60;78.70;;;;;;5015681;28;20401;-76
2022/05/26 13:28:58;;;;;;;4.90;2.73;;;21.60;79.50;;;;;;5015228;28;20239;-73
2022/05/26 13:34:17;;;;;;;4.93;2.60;;;21.80;80.00;;;;;;5012182;28;20454;-74
2022/05/26 13:36:47;;;;;;;5.03;3.13;;;21.70;79.30;;;;;;5012988;28;20815;-75
2022/05/26 13:39:27;;;;;;;6.93;2.80;;;21.70;79.10;;;;;;4999847;28;20471;-73
2022/05/26 13:41:57;;;;;;;6.43;3.10;;;21.70;79.00;;;;;;5012217;28;20529;-75
2022/05/26 13:44:37;;;;;;;5.07;2.57;;;21.60;78.20;;;;;;4996919;28;20466;-76
2022/05/26 13:47:08;;;;;;;8.70;2.73;;;21.60;79.90;;;;;;5013852;28;20419;-76
2022/05/26 13:49:43;;;;;;;5.90;3.37;;;21.70;79.90;;;;;;5013989;28;20845;-77
2022/05/26 13:52:23;;;;;;;5.37;2.90;;;21.60;78.10;;;;;;4997785;28;20502;-76
2022/05/26 13:54:58;;;;;;;3.10;2.30;;;21.60;77.60;;;;;;4997339;28;20431;-76
2022/05/26 13:57:27;;;;;;;8.17;3.30;;;21.60;77.30;;;;;;4987831;28;20836;-76
2022/05/26 14:00:25;;;;;;;3.73;2.70;;;21.50;77.30;;;;;;4994153;28;20452;-76